CBQ9 weather

Quennell Lake Seaplane Base
Nanaimo, British Columbia, Canada

Public forecast

Using degrees Celsius for public forecast. Weather courtesy of forecast.io.

METAR (pilot weather report)

Closest report is Nanaimo Airport, 2.0 nm (3.8 km) SW. Retrieved 2019/07/19 16:00 UTC (27 minutes ago):

CYCD 191600Z VRB02KT 25SM FEW024 16/10 A3012 RMK CU2 SLP201

TAF (pilot weather forecast)

Closest forecast is Nanaimo Airport, 2.0 nm (3.8 km) SW. Retrieved 2019/07/19 15:42 UTC (45 minutes ago):

TAF CYCD 191438Z 1915/2003 VRB03KT P6SM FEW012 FEW080 FM191900 03007KT P6SM SCT040 BKN080 TEMPO 1919/2003 BKN040 BECMG 2001/2003 VRB03KT RMK NXT FCST BY 191800Z